Time;durP1;ratioP1;P1;durP2;ratioP2;P2;SDS_P1;SDS_P2;PMS_P1;PMS_P2;Temp;Humidity;BMP_temperature;BMP_pressure;BME280_temperature;BME280_humidity;BME280_pressure;Samples;Min_cycle;Max_cycle;Signal;HPM_P1;HPM_P2
2023/10/04 00:00:20;;;;;;;7.47;4.80;;;12.50;99.90;;;;;;5073130;28;20456;-57
2023/10/04 00:02:50;;;;;;;5.03;3.40;;;12.50;99.90;;;;;;5072943;28;20500;-57
2023/10/04 00:05:17;;;;;;;6.90;4.70;;;12.50;99.90;;;;;;5073100;28;20429;-57
2023/10/04 00:07:46;;;;;;;6.33;3.97;;;12.50;99.90;;;;;;5072913;28;20444;-57
2023/10/04 00:10:13;;;;;;;5.90;3.47;;;12.50;99.90;;;;;;5072737;28;20456;-57
2023/10/04 00:12:40;;;;;;;4.57;3.50;;;12.50;99.90;;;;;;5072588;28;20826;-57
2023/10/04 00:15:10;;;;;;;6.80;3.60;;;12.50;99.90;;;;;;5072571;28;20441;-57
2023/10/04 00:17:38;;;;;;;9.90;4.83;;;12.50;99.90;;;;;;5072536;28;21004;-58
2023/10/04 00:20:10;;;;;;;4.73;3.73;;;12.50;99.90;;;;;;5072776;28;20486;-57
2023/10/04 00:22:39;;;;;;;10.40;3.93;;;12.50;99.90;;;;;;5072468;28;20465;-57
2023/10/04 00:25:11;;;;;;;7.53;4.10;;;12.50;99.90;;;;;;5072700;28;20471;-57
2023/10/04 00:27:40;;;;;;;7.40;3.60;;;12.40;99.90;;;;;;5074374;28;20453;-56
2023/10/04 00:30:11;;;;;;;10.60;3.60;;;12.40;99.90;;;;;;5078101;28;20467;-58
2023/10/04 00:32:37;;;;;;;6.63;4.03;;;12.40;99.90;;;;;;5076936;28;20488;-59
2023/10/04 00:35:08;;;;;;;8.57;3.97;;;12.40;99.90;;;;;;5076357;28;21016;-57
2023/10/04 00:37:35;;;;;;;6.03;3.30;;;12.40;99.90;;;;;;5076966;28;20471;-59
2023/10/04 00:40:09;;;;;;;5.80;3.63;;;12.40;99.90;;;;;;5076925;28;20440;-57
2023/10/04 00:42:36;;;;;;;6.03;3.70;;;12.40;99.90;;;;;;5076691;28;20460;-57
2023/10/04 00:45:04;;;;;;;6.30;3.70;;;12.40;99.90;;;;;;5076457;28;20813;-57
2023/10/04 00:47:31;;;;;;;8.13;3.90;;;12.50;99.90;;;;;;5076684;28;20440;-57
2023/10/04 00:50:00;;;;;;;8.07;3.80;;;12.40;99.90;;;;;;5076342;28;20960;-57
2023/10/04 00:52:28;;;;;;;7.87;4.07;;;12.50;99.90;;;;;;5076745;28;20518;-57
2023/10/04 00:54:55;;;;;;;6.20;4.10;;;12.50;99.90;;;;;;5076613;28;20452;-57
2023/10/04 00:57:22;;;;;;;7.30;4.37;;;12.40;99.90;;;;;;5076731;28;20472;-57
2023/10/04 00:59:50;;;;;;;5.37;3.50;;;12.40;99.90;;;;;;5076646;28;20443;-57
2023/10/04 01:02:16;;;;;;;9.37;4.17;;;12.40;99.90;;;;;;5076301;28;20455;-57
2023/10/04 01:04:43;;;;;;;7.07;4.00;;;12.40;99.90;;;;;;5077003;28;20457;-58
2023/10/04 01:07:10;;;;;;;8.23;4.60;;;12.40;99.90;;;;;;5076640;28;20959;-58
2023/10/04 01:09:38;;;;;;;11.90;5.07;;;12.40;99.90;;;;;;5076340;28;20436;-58
2023/10/04 01:12:05;;;;;;;5.40;3.83;;;12.40;99.90;;;;;;5075751;28;20475;-57
2023/10/04 01:14:37;;;;;;;9.23;3.83;;;12.40;99.90;;;;;;5076111;28;20447;-57
2023/10/04 01:17:06;;;;;;;7.80;3.33;;;12.40;99.90;;;;;;5075827;28;20532;-57
2023/10/04 01:19:33;;;;;;;5.50;3.40;;;12.40;99.90;;;;;;5075717;28;20790;-57
2023/10/04 01:22:05;;;;;;;7.67;4.17;;;12.40;99.90;;;;;;5075637;28;20982;-57
2023/10/04 01:24:33;;;;;;;8.53;3.20;;;12.40;99.90;;;;;;5076078;28;20453;-57
2023/10/04 01:27:00;;;;;;;8.70;3.90;;;12.40;99.90;;;;;;5075821;28;20478;-57
2023/10/04 01:29:27;;;;;;;5.87;3.63;;;12.40;99.90;;;;;;5075665;28;20444;-57
2023/10/04 01:31:54;;;;;;;7.23;3.97;;;12.40;99.90;;;;;;5075840;28;20460;-59
2023/10/04 01:34:21;;;;;;;9.27;4.37;;;12.40;99.90;;;;;;5075906;28;20448;-57
2023/10/04 01:36:48;;;;;;;6.77;4.50;;;12.40;99.90;;;;;;5076598;28;20484;-57
2023/10/04 01:39:19;;;;;;;7.97;4.00;;;12.40;99.90;;;;;;5075303;28;20445;-57
2023/10/04 01:41:47;;;;;;;5.60;3.80;;;12.40;99.90;;;;;;5075918;28;20530;-58
2023/10/04 01:44:15;;;;;;;5.83;3.67;;;12.40;99.90;;;;;;5075839;28;20444;-57
2023/10/04 01:46:43;;;;;;;6.23;3.37;;;12.40;99.90;;;;;;5075507;28;20949;-57
2023/10/04 01:49:10;;;;;;;7.33;3.93;;;12.40;99.90;;;;;;5076067;28;20471;-56
2023/10/04 01:51:40;;;;;;;7.50;3.57;;;12.40;99.90;;;;;;5078076;28;20476;-57
2023/10/04 01:54:07;;;;;;;9.93;3.40;;;12.50;99.90;;;;;;5077333;28;20434;-57
2023/10/04 01:56:37;;;;;;;7.10;3.20;;;12.50;99.90;;;;;;5077485;28;20447;-59
2023/10/04 01:59:04;;;;;;;6.87;3.47;;;12.60;99.90;;;;;;5077328;28;20498;-57
2023/10/04 02:01:31;;;;;;;7.23;2.90;;;12.60;99.90;;;;;;5087088;22;20862;-60
2023/10/04 02:03:59;;;;;;;5.57;3.00;;;12.70;99.90;;;;;;5036161;28;20807;-59
2023/10/04 02:06:26;;;;;;;11.37;3.20;;;12.70;99.90;;;;;;5036770;28;20463;-60
2023/10/04 02:08:53;;;;;;;6.50;2.63;;;12.80;99.90;;;;;;5036407;28;20542;-59
2023/10/04 02:11:21;;;;;;;4.43;2.93;;;12.80;99.90;;;;;;5037272;28;20474;-60
2023/10/04 02:13:50;;;;;;;5.77;2.90;;;12.90;99.90;;;;;;5036067;28;20501;-60
2023/10/04 02:16:19;;;;;;;7.47;3.67;;;12.90;99.90;;;;;;5036787;28;20826;-60
2023/10/04 02:18:47;;;;;;;5.87;3.00;;;13.00;99.90;;;;;;5035443;28;20530;-60
2023/10/04 02:21:14;;;;;;;4.17;2.40;;;13.00;99.90;;;;;;5036081;28;20464;-60
2023/10/04 02:23:42;;;;;;;6.97;3.73;;;13.00;99.90;;;;;;5035910;28;20498;-59
2023/10/04 02:26:09;;;;;;;5.00;3.10;;;13.00;99.90;;;;;;5036742;28;20452;-58
2023/10/04 02:28:36;;;;;;;7.97;3.73;;;13.00;99.90;;;;;;5035702;28;20446;-59
2023/10/04 02:31:04;;;;;;;2.97;2.47;;;13.00;99.90;;;;;;5035823;28;20464;-59
2023/10/04 02:33:34;;;;;;;6.00;3.00;;;13.00;99.90;;;;;;5035595;28;21015;-60
2023/10/04 02:36:04;;;;;;;6.60;3.00;;;13.00;99.90;;;;;;5036205;28;20507;-59
2023/10/04 02:38:34;;;;;;;4.90;2.47;;;13.00;99.90;;;;;;5036032;28;20477;-60
2023/10/04 02:41:00;;;;;;;3.87;2.70;;;13.00;99.90;;;;;;5035929;28;20468;-60
2023/10/04 02:43:28;;;;;;;6.67;3.70;;;13.00;99.90;;;;;;5036125;28;20447;-60
2023/10/04 02:45:57;;;;;;;5.30;2.63;;;13.00;99.90;;;;;;5035426;28;20494;-60
2023/10/04 02:48:25;;;;;;;4.10;2.77;;;13.00;99.90;;;;;;5035434;28;20440;-59
2023/10/04 02:50:53;;;;;;;10.17;3.37;;;13.00;99.90;;;;;;5034637;28;20452;-59
2023/10/04 02:53:23;;;;;;;4.37;3.13;;;13.00;99.90;;;;;;5036437;28;20447;-60
2023/10/04 02:55:54;;;;;;;8.83;3.40;;;13.10;99.90;;;;;;5035736;28;20793;-60
2023/10/04 02:58:21;;;;;;;6.77;3.73;;;13.10;99.90;;;;;;5034997;28;20939;-60
2023/10/04 03:00:49;;;;;;;4.93;3.17;;;13.10;99.90;;;;;;5035643;28;20448;-60
2023/10/04 03:03:19;;;;;;;8.17;2.87;;;13.10;99.90;;;;;;5036166;28;20423;-60
2023/10/04 03:05:47;;;;;;;4.80;3.10;;;13.10;99.90;;;;;;5036289;28;20456;-59
2023/10/04 03:08:19;;;;;;;6.30;3.27;;;13.10;99.90;;;;;;5035284;28;20970;-60
2023/10/04 03:10:49;;;;;;;6.77;3.00;;;13.10;99.90;;;;;;5035578;28;20433;-61
2023/10/04 03:13:22;;;;;;;7.23;3.20;;;13.20;99.90;;;;;;5034839;28;20906;-59
2023/10/04 03:15:50;;;;;;;5.63;3.30;;;13.20;99.90;;;;;;5034583;28;20457;-59
2023/10/04 03:18:20;;;;;;;8.43;3.10;;;13.20;99.90;;;;;;5034988;28;20483;-60
2023/10/04 03:21:07;;;;;;;5.00;3.27;;;13.20;99.90;;;;;;5034869;28;20448;-61
2023/10/04 03:23:35;;;;;;;8.30;3.27;;;13.20;99.90;;;;;;5034549;28;20450;-59
2023/10/04 03:26:03;;;;;;;5.90;3.00;;;13.30;99.90;;;;;;5034522;28;20449;-60
2023/10/04 03:28:33;;;;;;;4.97;3.17;;;13.20;99.90;;;;;;5034692;28;20544;-60
2023/10/04 03:31:04;;;;;;;4.90;3.10;;;13.30;99.90;;;;;;5034212;28;20479;-60
2023/10/04 03:33:31;;;;;;;9.73;3.53;;;13.20;99.90;;;;;;5034161;28;20429;-60
2023/10/04 03:35:59;;;;;;;7.20;4.20;;;13.20;99.90;;;;;;5034262;28;20453;-59
2023/10/04 03:38:26;;;;;;;6.30;3.70;;;13.20;99.90;;;;;;5033781;28;20488;-60
2023/10/04 03:40:55;;;;;;;12.57;4.00;;;13.20;99.90;;;;;;5033917;28;20511;-61
2023/10/04 03:43:22;;;;;;;6.93;3.20;;;13.20;99.90;;;;;;5034046;28;20444;-60
2023/10/04 03:45:49;;;;;;;8.97;3.80;;;13.20;99.90;;;;;;5033367;28;20452;-60
2023/10/04 03:48:16;;;;;;;6.07;3.33;;;13.20;99.90;;;;;;5033620;28;20436;-60
2023/10/04 03:50:46;;;;;;;6.90;3.50;;;13.20;99.90;;;;;;5033638;28;20441;-59
2023/10/04 03:53:15;;;;;;;6.13;3.37;;;13.20;99.90;;;;;;5033566;28;20868;-60
2023/10/04 03:55:43;;;;;;;6.60;3.40;;;13.20;99.90;;;;;;5033345;28;20447;-59
2023/10/04 03:58:11;;;;;;;6.53;3.67;;;13.20;99.90;;;;;;5033246;28;20509;-60
2023/10/04 04:00:41;;;;;;;8.00;3.83;;;13.10;99.90;;;;;;5033774;28;20478;-58
2023/10/04 04:03:09;;;;;;;7.03;3.47;;;13.10;99.90;;;;;;5034083;28;20442;-58
2023/10/04 04:05:41;;;;;;;5.83;3.63;;;13.10;99.90;;;;;;5033493;28;20449;-59
2023/10/04 04:08:08;;;;;;;5.67;3.17;;;13.00;99.90;;;;;;5033900;28;20475;-60
2023/10/04 04:12:17;;;;;;;7.93;4.20;;;13.00;99.90;;;;;;5122083;27;20559;-60
2023/10/04 04:14:44;;;;;;;7.03;3.30;;;13.00;99.90;;;;;;5119050;28;20443;-60
2023/10/04 04:17:11;;;;;;;6.03;4.10;;;13.00;99.90;;;;;;5120338;28;20445;-60
2023/10/04 04:19:38;;;;;;;8.80;3.90;;;13.00;99.90;;;;;;5119988;28;20451;-60
2023/10/04 04:22:05;;;;;;;9.60;4.03;;;13.00;99.90;;;;;;5120551;28;20508;-60
2023/10/04 04:24:32;;;;;;;7.20;4.10;;;13.00;99.90;;;;;;5118541;28;20446;-61
2023/10/04 04:27:00;;;;;;;10.40;3.93;;;13.00;99.90;;;;;;5118692;28;20509;-57
2023/10/04 04:29:28;;;;;;;8.57;4.43;;;12.90;99.90;;;;;;5120844;28;20444;-61
2023/10/04 04:31:56;;;;;;;7.53;3.70;;;12.90;99.90;;;;;;5117903;28;20477;-60
2023/10/04 04:34:25;;;;;;;7.50;4.03;;;12.90;99.90;;;;;;5117329;28;20475;-61
2023/10/04 04:36:52;;;;;;;9.00;4.13;;;12.90;99.90;;;;;;5119721;28;20875;-60
2023/10/04 04:39:19;;;;;;;7.70;4.33;;;12.90;99.90;;;;;;5120863;28;20444;-61
2023/10/04 04:41:49;;;;;;;7.77;3.93;;;12.90;99.90;;;;;;5120500;28;20505;-61
2023/10/04 04:44:20;;;;;;;14.83;4.03;;;12.90;99.90;;;;;;5122645;28;20433;-61
2023/10/04 04:46:48;;;;;;;9.90;4.10;;;12.90;99.90;;;;;;5120842;28;20427;-61
2023/10/04 04:49:16;;;;;;;7.90;4.00;;;12.90;99.90;;;;;;5121539;28;20946;-61
2023/10/04 04:51:46;;;;;;;10.63;4.03;;;12.90;99.90;;;;;;5121236;28;20577;-59
2023/10/04 04:54:13;;;;;;;6.17;4.00;;;12.80;99.90;;;;;;5120272;28;20584;-62
2023/10/04 04:56:40;;;;;;;10.03;4.07;;;12.80;99.90;;;;;;5118563;28;20455;-60
2023/10/04 04:59:08;;;;;;;7.77;4.10;;;12.80;99.90;;;;;;5119648;28;20513;-60
2023/10/04 05:01:38;;;;;;;5.27;3.53;;;12.80;99.90;;;;;;5119182;28;20461;-60
2023/10/04 05:04:07;;;;;;;8.10;3.73;;;12.80;99.90;;;;;;5119749;28;20521;-61
2023/10/04 05:06:34;;;;;;;12.60;3.80;;;12.80;99.90;;;;;;5119699;28;20500;-60
2023/10/04 05:09:01;;;;;;;7.87;3.20;;;12.80;99.90;;;;;;5119052;28;20528;-60
2023/10/04 05:11:27;;;;;;;6.53;3.93;;;12.80;99.90;;;;;;5118144;28;20484;-61
2023/10/04 05:13:55;;;;;;;7.87;4.23;;;12.70;99.90;;;;;;5119740;28;20440;-60
2023/10/04 05:16:22;;;;;;;6.87;3.53;;;12.70;99.90;;;;;;5118923;28;20479;-61
2023/10/04 05:18:49;;;;;;;13.67;5.20;;;12.70;99.90;;;;;;5116317;28;20971;-61
2023/10/04 05:21:17;;;;;;;8.27;4.07;;;12.70;99.90;;;;;;5116437;28;20493;-60
2023/10/04 05:23:44;;;;;;;6.10;5.07;;;12.60;99.90;;;;;;5101383;28;20447;-61
2023/10/04 05:26:12;;;;;;;8.37;4.47;;;12.60;99.90;;;;;;5103925;28;20450;-63
2023/10/04 05:28:40;;;;;;;8.87;4.47;;;12.60;99.90;;;;;;5100112;28;20444;-60
2023/10/04 05:31:08;;;;;;;6.97;4.30;;;12.60;99.90;;;;;;5099873;28;20894;-58
2023/10/04 05:33:35;;;;;;;10.60;4.87;;;12.60;99.90;;;;;;5101438;28;20451;-59
2023/10/04 05:36:03;;;;;;;7.57;5.63;;;12.60;99.90;;;;;;5100069;28;20498;-60
2023/10/04 05:38:33;;;;;;;7.90;4.63;;;12.60;99.90;;;;;;5099849;28;20479;-61
2023/10/04 05:41:02;;;;;;;10.13;4.50;;;12.60;99.90;;;;;;5098495;28;20465;-60
2023/10/04 05:43:29;;;;;;;9.83;5.97;;;12.60;99.90;;;;;;5098976;28;20455;-60
2023/10/04 05:45:57;;;;;;;7.90;5.00;;;12.60;99.90;;;;;;5099728;28;20456;-60
2023/10/04 05:48:26;;;;;;;7.87;4.67;;;12.60;99.90;;;;;;5098841;28;20451;-60
2023/10/04 05:50:54;;;;;;;15.80;5.70;;;12.60;99.90;;;;;;5098179;28;20836;-60
2023/10/04 05:53:21;;;;;;;7.97;4.83;;;12.60;99.90;;;;;;5099002;28;20445;-61
2023/10/04 05:55:49;;;;;;;10.57;5.67;;;12.50;99.90;;;;;;5104335;28;20445;-61
2023/10/04 05:58:18;;;;;;;12.53;5.53;;;12.50;99.90;;;;;;5102456;28;20822;-61
2023/10/04 06:00:51;;;;;;;9.10;5.43;;;12.60;99.90;;;;;;5103998;28;20449;-60
2023/10/04 06:03:18;;;;;;;6.10;4.70;;;12.50;99.90;;;;;;5107609;28;20465;-61
2023/10/04 06:05:45;;;;;;;10.30;5.03;;;12.50;99.90;;;;;;5104857;28;20442;-60
2023/10/04 06:08:18;;;;;;;6.10;4.63;;;12.50;99.90;;;;;;5105769;28;20447;-59
2023/10/04 06:10:47;;;;;;;9.90;5.73;;;12.50;99.90;;;;;;5103614;28;20488;-60
2023/10/04 06:13:17;;;;;;;13.00;5.40;;;12.50;99.90;;;;;;5101753;28;20444;-60
2023/10/04 06:15:46;;;;;;;8.70;6.00;;;12.50;99.90;;;;;;5099965;28;21020;-60
2023/10/04 06:18:13;;;;;;;10.50;4.80;;;12.50;99.90;;;;;;5103131;28;20441;-61
2023/10/04 06:20:40;;;;;;;8.13;5.67;;;12.50;99.90;;;;;;5097793;28;20964;-58
2023/10/04 06:23:09;;;;;;;7.80;5.30;;;12.50;99.90;;;;;;5097701;28;20447;-60
2023/10/04 06:25:40;;;;;;;6.73;5.00;;;12.50;99.90;;;;;;5099380;28;20441;-60
2023/10/04 06:28:07;;;;;;;6.83;4.40;;;12.60;99.90;;;;;;5098286;28;20435;-61
2023/10/04 06:30:36;;;;;;;8.63;4.63;;;12.60;99.90;;;;;;5098810;28;20444;-58
2023/10/04 06:33:05;;;;;;;9.47;5.20;;;12.70;99.90;;;;;;5096649;28;20468;-61
2023/10/04 06:35:32;;;;;;;8.73;5.03;;;12.70;99.90;;;;;;5098699;28;20449;-60
2023/10/04 06:38:00;;;;;;;6.73;4.80;;;12.80;99.90;;;;;;5097593;28;20436;-60
2023/10/04 06:40:31;;;;;;;6.70;5.10;;;12.90;99.90;;;;;;5098999;28;20440;-59
2023/10/04 06:42:59;;;;;;;7.00;4.67;;;12.90;99.90;;;;;;5100222;28;20511;-58
2023/10/04 06:45:26;;;;;;;10.33;5.20;;;13.00;99.90;;;;;;5096813;28;20500;-61
2023/10/04 06:47:56;;;;;;;10.23;4.00;;;13.10;99.90;;;;;;5099301;28;20468;-60
2023/10/04 06:50:28;;;;;;;10.23;4.73;;;13.20;99.90;;;;;;5099133;28;20472;-60
2023/10/04 06:52:57;;;;;;;6.67;4.60;;;13.20;99.90;;;;;;5098978;28;20490;-60
2023/10/04 06:55:24;;;;;;;8.73;4.80;;;13.30;99.90;;;;;;5100194;28;20472;-60
2023/10/04 06:57:51;;;;;;;5.37;3.90;;;13.40;99.90;;;;;;5097804;28;20449;-60
2023/10/04 07:00:20;;;;;;;9.03;4.53;;;13.50;99.90;;;;;;5098747;28;20811;-60
2023/10/04 07:02:49;;;;;;;10.37;4.13;;;13.50;99.90;;;;;;5097239;28;20472;-60
2023/10/04 07:05:19;;;;;;;6.90;3.63;;;13.60;99.90;;;;;;5098403;28;20459;-59
2023/10/04 07:07:47;;;;;;;9.53;4.83;;;13.60;99.90;;;;;;5097245;28;20423;-59
2023/10/04 07:10:15;;;;;;;8.80;4.10;;;13.70;99.90;;;;;;5097846;28;20486;-59
2023/10/04 07:12:43;;;;;;;5.60;3.90;;;13.70;99.90;;;;;;5098260;28;20489;-59
2023/10/04 07:15:11;;;;;;;8.50;4.27;;;13.80;99.90;;;;;;5101065;28;20446;-59
2023/10/04 07:17:39;;;;;;;6.10;3.47;;;13.80;99.90;;;;;;5102976;28;20467;-60
2023/10/04 07:20:07;;;;;;;9.53;3.80;;;13.90;99.90;;;;;;5103354;28;20453;-60
2023/10/04 07:22:36;;;;;;;12.07;4.30;;;13.90;99.90;;;;;;5102248;28;20453;-60
2023/10/04 07:25:03;;;;;;;6.10;3.80;;;13.90;99.90;;;;;;5098041;28;20453;-59
2023/10/04 07:27:29;;;;;;;8.13;3.70;;;14.00;99.90;;;;;;5099557;28;20438;-59
2023/10/04 07:29:56;;;;;;;8.37;4.13;;;14.10;99.90;;;;;;5097679;28;20448;-58
2023/10/04 07:32:23;;;;;;;10.43;5.43;;;14.10;99.90;;;;;;5098254;28;20492;-60
2023/10/04 07:34:49;;;;;;;4.17;3.77;;;14.20;99.90;;;;;;5099351;28;20468;-58
2023/10/04 07:37:16;;;;;;;9.57;4.03;;;14.30;99.90;;;;;;5099342;28;20440;-60
2023/10/04 07:39:44;;;;;;;7.20;3.50;;;14.30;99.90;;;;;;5102511;28;20457;-58
2023/10/04 07:42:11;;;;;;;9.10;4.47;;;14.30;99.90;;;;;;5101114;28;20455;-59
2023/10/04 07:44:38;;;;;;;7.70;4.03;;;14.40;99.90;;;;;;5098485;28;20443;-60
2023/10/04 07:47:06;;;;;;;8.50;4.03;;;14.50;99.90;;;;;;5100448;28;20449;-60
2023/10/04 07:49:32;;;;;;;7.10;3.77;;;14.50;99.90;;;;;;5103288;28;20438;-59
2023/10/04 07:51:59;;;;;;;7.70;3.60;;;14.50;99.90;;;;;;5101057;28;20481;-57
2023/10/04 07:54:27;;;;;;;9.63;3.60;;;14.50;99.90;;;;;;5102499;28;20442;-60
2023/10/04 07:56:55;;;;;;;9.53;3.63;;;14.60;99.90;;;;;;5101972;28;20486;-59
2023/10/04 07:59:22;;;;;;;9.67;4.10;;;14.70;99.90;;;;;;5102915;28;20817;-60
2023/10/04 08:01:48;;;;;;;6.10;3.30;;;14.80;99.90;;;;;;5098489;28;20455;-59
2023/10/04 08:04:15;;;;;;;7.73;3.50;;;14.90;99.90;;;;;;5098276;28;20447;-59
2023/10/04 08:06:44;;;;;;;7.13;3.37;;;14.90;99.90;;;;;;5097671;28;20450;-57
2023/10/04 08:09:13;;;;;;;8.10;3.50;;;14.90;99.90;;;;;;5100142;28;20474;-59
2023/10/04 08:11:41;;;;;;;7.80;3.30;;;14.90;99.90;;;;;;5095575;28;20569;-60
2023/10/04 08:14:10;;;;;;;7.53;3.83;;;14.90;99.90;;;;;;5098017;28;20778;-59
2023/10/04 08:16:37;;;;;;;5.73;3.10;;;15.00;99.90;;;;;;5098416;28;20545;-59
2023/10/04 08:19:05;;;;;;;4.90;2.90;;;15.10;99.90;;;;;;5097557;28;20443;-58
2023/10/04 08:21:33;;;;;;;8.30;3.63;;;15.10;99.90;;;;;;5095872;28;20454;-59
2023/10/04 08:24:00;;;;;;;6.23;3.10;;;15.10;99.90;;;;;;5095206;28;20858;-59
2023/10/04 08:26:27;;;;;;;5.80;3.20;;;15.20;99.90;;;;;;5095805;28;20446;-57
2023/10/04 08:28:54;;;;;;;5.13;3.57;;;15.30;99.90;;;;;;5094505;28;20443;-58
2023/10/04 08:31:22;;;;;;;9.50;3.10;;;15.30;99.90;;;;;;5095881;28;20466;-59
2023/10/04 08:33:49;;;;;;;8.43;3.43;;;15.50;99.90;;;;;;5098750;28;20447;-60
2023/10/04 08:36:16;;;;;;;5.20;3.40;;;15.50;99.90;;;;;;5098452;28;20451;-60
2023/10/04 08:38:44;;;;;;;5.63;3.40;;;15.60;99.90;;;;;;5095981;28;20443;-59
2023/10/04 08:41:11;;;;;;;8.77;3.27;;;15.70;99.90;;;;;;5096728;28;20473;-58
2023/10/04 08:43:38;;;;;;;4.97;3.47;;;15.70;99.90;;;;;;5097840;28;20943;-59
2023/10/04 08:46:07;;;;;;;6.17;3.60;;;15.80;99.90;;;;;;5097006;28;20449;-60
2023/10/04 08:48:35;;;;;;;10.20;3.87;;;15.90;99.90;;;;;;5096537;28;20442;-59
2023/10/04 08:51:13;;;;;;;7.17;3.63;;;16.00;99.90;;;;;;5097532;28;20549;-61
2023/10/04 08:53:52;;;;;;;7.07;3.37;;;16.10;99.90;;;;;;5097281;28;20467;-58
2023/10/04 08:56:20;;;;;;;6.27;3.00;;;16.10;99.90;;;;;;5096704;28;20518;-60
2023/10/04 08:58:48;;;;;;;10.40;3.40;;;16.20;99.90;;;;;;5100753;28;20537;-58
2023/10/04 09:01:16;;;;;;;7.17;3.60;;;16.30;99.90;;;;;;5100366;28;20839;-59
2023/10/04 09:03:45;;;;;;;9.47;3.67;;;16.30;99.90;;;;;;5100918;28;20428;-59
2023/10/04 09:06:14;;;;;;;5.17;2.90;;;16.40;99.90;;;;;;5101184;28;20451;-59
2023/10/04 09:08:41;;;;;;;9.10;3.70;;;16.30;99.90;;;;;;5100055;28;20490;-58
2023/10/04 09:11:11;;;;;;;10.73;3.90;;;16.30;99.90;;;;;;5099366;28;20466;-59
2023/10/04 09:13:46;;;;;;;5.77;3.50;;;16.30;99.90;;;;;;5099380;28;20489;-59
2023/10/04 09:16:24;;;;;;;6.33;3.80;;;16.40;99.90;;;;;;5098664;28;20522;-59
2023/10/04 09:19:08;;;;;;;6.60;3.70;;;16.50;99.90;;;;;;5097868;28;20432;-60
2023/10/04 09:21:38;;;;;;;6.00;3.50;;;16.60;99.90;;;;;;5106271;28;20463;-60
2023/10/04 09:24:09;;;;;;;9.10;3.43;;;16.70;99.90;;;;;;5107265;28;20557;-60
2023/10/04 09:26:37;;;;;;;5.93;3.90;;;16.70;99.90;;;;;;5099374;28;20499;-60
2023/10/04 09:29:05;;;;;;;6.67;4.00;;;16.60;99.90;;;;;;5098183;28;20946;-60
2023/10/04 09:31:45;;;;;;;5.70;2.93;;;16.50;99.90;;;;;;5098252;28;20969;-60
2023/10/04 09:34:17;;;;;;;11.23;4.00;;;16.40;99.90;;;;;;5097493;28;20438;-59
2023/10/04 09:36:44;;;;;;;8.37;4.50;;;16.30;99.90;;;;;;5098550;28;20735;-59
2023/10/04 09:39:13;;;;;;;8.80;3.90;;;16.30;99.90;;;;;;5097810;28;20452;-61
2023/10/04 09:41:47;;;;;;;9.80;4.20;;;16.30;99.90;;;;;;5098015;28;21063;-60
2023/10/04 09:44:23;;;;;;;14.93;4.90;;;16.30;99.90;;;;;;5098706;28;20800;-60
2023/10/04 09:46:54;;;;;;;10.80;3.90;;;16.40;99.90;;;;;;5097758;28;20859;-60
2023/10/04 09:49:24;;;;;;;7.47;3.47;;;16.50;99.90;;;;;;5098415;28;20793;-59
2023/10/04 09:51:53;;;;;;;9.83;4.10;;;16.60;99.90;;;;;;5097683;28;20460;-61
2023/10/04 09:54:20;;;;;;;7.00;3.40;;;16.50;99.40;;;;;;5099648;28;20442;-60
2023/10/04 09:56:47;;;;;;;6.50;4.47;;;16.50;99.30;;;;;;5102949;28;20473;-61
2023/10/04 09:59:19;;;;;;;7.80;3.40;;;16.50;99.60;;;;;;5108315;28;20445;-62
2023/10/04 10:01:48;;;;;;;9.73;3.80;;;16.60;99.50;;;;;;5106065;28;20462;-61
2023/10/04 10:04:20;;;;;;;7.80;3.77;;;16.70;99.50;;;;;;5105821;28;20476;-60
2023/10/04 10:06:57;;;;;;;9.20;3.77;;;16.60;98.90;;;;;;5102673;28;20421;-60
2023/10/04 10:09:25;;;;;;;8.77;4.33;;;16.60;98.80;;;;;;5099835;28;20429;-61
2023/10/04 10:11:54;;;;;;;11.20;4.77;;;16.70;99.10;;;;;;5098818;28;20983;-60
2023/10/04 10:14:22;;;;;;;4.60;3.40;;;16.80;99.00;;;;;;5098107;28;20950;-60
2023/10/04 10:16:54;;;;;;;7.90;3.83;;;16.90;98.50;;;;;;5097556;28;20446;-59
2023/10/04 10:19:23;;;;;;;8.77;4.10;;;17.00;98.40;;;;;;5097734;28;20433;-60
2023/10/04 10:22:11;;;;;;;8.87;4.03;;;17.10;97.90;;;;;;5098120;28;20519;-60
2023/10/04 10:24:48;;;;;;;8.90;3.57;;;17.40;97.30;;;;;;5098524;28;20433;-60
2023/10/04 10:27:17;;;;;;;8.00;3.80;;;17.40;96.30;;;;;;5097847;28;20426;-60
2023/10/04 10:29:44;;;;;;;7.33;3.90;;;17.40;95.10;;;;;;5097769;28;20446;-60
2023/10/04 10:32:15;;;;;;;8.83;3.60;;;17.30;94.90;;;;;;5099977;28;20477;-61
2023/10/04 10:34:43;;;;;;;7.57;3.90;;;17.20;94.50;;;;;;5097114;28;20422;-60
2023/10/04 10:37:18;;;;;;;6.60;3.47;;;17.20;93.90;;;;;;5098007;28;20438;-59
2023/10/04 10:39:46;;;;;;;6.63;4.53;;;17.10;93.60;;;;;;5096794;28;20421;-60
2023/10/04 10:42:14;;;;;;;8.50;3.80;;;16.90;93.60;;;;;;5097493;28;20570;-60
2023/10/04 10:44:41;;;;;;;7.10;3.33;;;16.90;94.00;;;;;;5096839;28;20872;-57
2023/10/04 10:47:19;;;;;;;6.13;3.50;;;17.10;93.80;;;;;;5096857;28;20446;-59
2023/10/04 10:49:52;;;;;;;12.70;4.63;;;17.10;93.50;;;;;;5096190;28;20885;-60
2023/10/04 10:52:33;;;;;;;6.83;3.67;;;17.20;93.60;;;;;;5096401;28;20477;-60
2023/10/04 10:55:01;;;;;;;6.60;3.40;;;17.40;93.50;;;;;;5096887;28;20430;-60
2023/10/04 10:57:29;;;;;;;8.30;3.60;;;17.50;92.70;;;;;;5097155;28;20443;-60
2023/10/04 10:59:57;;;;;;;5.50;3.60;;;17.50;92.10;;;;;;5096200;28;20471;-60
2023/10/04 11:02:27;;;;;;;4.30;3.03;;;17.50;91.70;;;;;;5096791;28;20541;-60
2023/10/04 11:04:55;;;;;;;6.90;3.30;;;17.40;90.70;;;;;;5096905;28;20922;-61
2023/10/04 11:07:26;;;;;;;8.90;3.73;;;17.40;90.10;;;;;;5098251;28;20463;-61
2023/10/04 11:09:53;;;;;;;14.07;4.27;;;17.50;89.70;;;;;;5104064;28;20465;-59
2023/10/04 11:12:22;;;;;;;7.90;3.93;;;17.50;88.80;;;;;;5104365;28;20533;-60
2023/10/04 11:14:49;;;;;;;9.97;4.03;;;17.50;88.70;;;;;;5101923;28;20450;-59
2023/10/04 11:17:16;;;;;;;8.20;3.63;;;17.60;89.20;;;;;;5096139;28;20449;-60
2023/10/04 11:19:44;;;;;;;10.60;3.37;;;17.70;88.90;;;;;;5096260;28;20442;-61
2023/10/04 11:22:14;;;;;;;6.27;3.50;;;17.80;88.10;;;;;;5095176;28;20462;-60
2023/10/04 11:24:43;;;;;;;8.13;3.43;;;18.00;87.30;;;;;;5096360;28;20447;-59
2023/10/04 11:27:10;;;;;;;9.03;3.10;;;18.20;85.60;;;;;;5095800;28;20441;-59
2023/10/04 11:29:38;;;;;;;7.10;3.73;;;18.20;83.80;;;;;;5098114;28;20468;-59
2023/10/04 11:32:06;;;;;;;6.60;3.10;;;18.30;83.10;;;;;;5097272;28;20465;-59
2023/10/04 11:34:36;;;;;;;4.43;2.80;;;18.20;81.60;;;;;;5096393;28;20473;-60
2023/10/04 11:37:03;;;;;;;7.23;3.10;;;18.20;81.20;;;;;;5096341;28;20499;-58
2023/10/04 11:39:34;;;;;;;6.67;3.20;;;18.20;80.80;;;;;;5096351;28;20596;-60
2023/10/04 11:42:03;;;;;;;6.23;2.83;;;18.10;80.70;;;;;;5095337;28;20447;-59
2023/10/04 11:44:32;;;;;;;7.40;3.30;;;18.00;80.80;;;;;;5095719;28;20495;-60
2023/10/04 11:47:00;;;;;;;9.13;3.20;;;18.00;81.20;;;;;;5095500;28;20516;-60
2023/10/04 11:49:29;;;;;;;8.73;3.07;;;18.10;81.60;;;;;;5094862;28;20945;-59
2023/10/04 11:51:59;;;;;;;9.70;4.80;;;18.20;81.00;;;;;;5094913;28;20511;-61
2023/10/04 11:54:37;;;;;;;12.90;4.20;;;18.40;80.90;;;;;;5095919;28;20463;-60
2023/10/04 11:57:05;;;;;;;6.93;3.47;;;18.70;79.80;;;;;;5095772;28;20429;-59
2023/10/04 11:59:33;;;;;;;6.60;2.83;;;18.80;77.40;;;;;;5095763;28;20901;-59
2023/10/04 12:02:01;;;;;;;9.83;4.60;;;18.70;76.30;;;;;;5095361;28;20977;-58
2023/10/04 12:04:28;;;;;;;10.13;3.43;;;18.80;76.30;;;;;;5095285;28;21000;-60
2023/10/04 12:07:00;;;;;;;6.60;3.87;;;18.90;76.00;;;;;;5096561;28;20442;-61
2023/10/04 12:09:30;;;;;;;6.20;3.50;;;18.80;74.60;;;;;;5095984;28;20441;-60
2023/10/04 12:11:57;;;;;;;8.83;3.93;;;18.70;74.90;;;;;;5096132;28;20484;-59
2023/10/04 12:14:26;;;;;;;8.23;3.43;;;18.70;74.90;;;;;;5095144;28;20543;-59
2023/10/04 12:16:53;;;;;;;8.80;2.70;;;18.90;74.80;;;;;;5095770;28;20454;-60
2023/10/04 12:19:20;;;;;;;7.00;3.00;;;19.00;73.40;;;;;;5095146;28;20454;-58
2023/10/04 12:21:47;;;;;;;5.37;3.30;;;19.10;72.20;;;;;;5096319;28;20469;-59
2023/10/04 12:24:14;;;;;;;7.00;2.63;;;19.20;72.10;;;;;;5095635;28;20902;-60
2023/10/04 12:26:41;;;;;;;8.43;3.10;;;19.30;71.50;;;;;;5094797;28;20445;-58
2023/10/04 12:29:09;;;;;;;5.90;3.17;;;19.30;70.30;;;;;;5096437;28;20440;-59
2023/10/04 12:31:37;;;;;;;6.93;3.50;;;19.30;70.40;;;;;;5098014;28;20456;-60
2023/10/04 12:34:04;;;;;;;6.17;2.60;;;19.40;69.80;;;;;;5105109;28;20534;-59
2023/10/04 12:36:30;;;;;;;6.63;2.90;;;19.50;69.40;;;;;;5103360;28;20440;-60
2023/10/04 12:38:57;;;;;;;5.40;2.97;;;19.50;68.80;;;;;;5100961;28;20444;-62
2023/10/04 12:41:25;;;;;;;12.10;3.80;;;19.50;68.80;;;;;;5099779;28;20468;-61
2023/10/04 12:43:52;;;;;;;8.13;3.23;;;19.60;68.30;;;;;;5100061;28;20441;-61
2023/10/04 12:46:18;;;;;;;8.50;3.50;;;19.60;68.50;;;;;;5100455;28;20443;-59
2023/10/04 12:48:47;;;;;;;6.17;2.80;;;19.50;68.50;;;;;;5099846;28;20872;-58
2023/10/04 12:51:14;;;;;;;6.30;2.97;;;19.40;68.70;;;;;;5099476;28;20520;-59
2023/10/04 12:53:41;;;;;;;7.57;3.17;;;19.30;67.90;;;;;;5100975;28;20480;-60